Time;durP1;ratioP1;P1;durP2;ratioP2;P2;SDS_P1;SDS_P2;PMS_P1;PMS_P2;Temp;Humidity;BMP_temperature;BMP_pressure;BME280_temperature;BME280_humidity;BME280_pressure;Samples;Min_cycle;Max_cycle;Signal;HPM_P1;HPM_P2
2023/04/23 00:03:11;;;;;;;34.50;19.20;;;;;;;10.10;64.45;100377.05;106766;1261;98210;-80
2023/04/23 00:05:58;;;;;;;31.60;19.50;;;;;;;10.08;64.29;100375.17;106622;1259;101284;-80
2023/04/23 00:08:43;;;;;;;38.10;20.10;;;;;;;10.07;64.33;100373.16;106960;1260;99932;-80
2023/04/23 00:11:29;;;;;;;33.00;18.20;;;;;;;10.05;64.59;100372.67;106759;1260;98959;-80
2023/04/23 00:14:15;;;;;;;32.60;20.40;;;;;;;10.03;64.75;100370.61;106604;1263;96600;-79
2023/04/23 00:17:00;;;;;;;32.90;20.10;;;;;;;10.01;64.72;100370.87;106523;1258;97239;-79
2023/04/23 00:19:46;;;;;;;28.60;18.60;;;;;;;9.99;64.64;100368.73;106586;1258;101277;-80
2023/04/23 00:22:32;;;;;;;30.30;20.00;;;;;;;9.97;64.36;100367.05;106389;1257;99929;-80
2023/04/23 00:25:17;;;;;;;26.60;18.70;;;;;;;9.94;64.34;100367.64;106381;1260;99008;-80
2023/04/23 00:28:03;;;;;;;30.60;18.10;;;;;;;9.92;64.38;100365.23;106301;1262;96588;-80
2023/04/23 00:30:48;;;;;;;29.40;19.20;;;;;;;9.90;64.77;100362.03;106496;1259;96528;-81
2023/04/23 00:33:34;;;;;;;29.80;18.20;;;;;;;9.89;64.65;100360.04;106316;1262;101248;-80
2023/04/23 00:36:20;;;;;;;27.30;18.40;;;;;;;9.87;64.73;100360.60;106539;1257;99198;-80
2023/04/23 00:39:05;;;;;;;29.40;19.10;;;;;;;9.87;64.71;100358.45;106573;1256;97719;-81
2023/04/23 00:41:51;;;;;;;34.20;19.10;;;;;;;9.85;64.82;100357.84;106640;1259;96689;-81
2023/04/23 00:44:38;;;;;;;30.30;18.90;;;;;;;9.83;64.67;100357.70;106671;1257;96491;-80
2023/04/23 00:47:24;;;;;;;31.30;18.90;;;;;;;9.80;64.83;100356.52;106780;1256;100076;-81
2023/04/23 00:50:10;;;;;;;32.90;19.60;;;;;;;9.77;64.73;100355.52;106747;1256;99097;-81
2023/04/23 00:52:55;;;;;;;31.20;20.20;;;;;;;9.73;64.78;100358.28;106510;1262;97709;-81
2023/04/23 00:55:41;;;;;;;31.90;20.40;;;;;;;9.70;64.89;100357.62;106772;1257;96432;-82
2023/04/23 00:58:28;;;;;;;32.90;20.40;;;;;;;9.65;64.94;100358.35;106581;1262;97023;-82
2023/04/23 01:01:14;;;;;;;42.40;23.00;;;;;;;9.61;65.05;100358.74;106696;1256;101046;-81
2023/04/23 01:04:00;;;;;;;34.50;21.50;;;;;;;9.58;64.92;100360.64;106726;1256;99087;-81
2023/04/23 01:06:46;;;;;;;36.90;21.50;;;;;;;9.53;65.19;100362.14;106655;1258;99083;-81
2023/04/23 01:09:32;;;;;;;34.90;21.80;;;;;;;9.48;65.05;100360.30;106762;1256;96598;-81
2023/04/23 01:12:18;;;;;;;32.50;20.60;;;;;;;9.44;65.23;100359.75;106709;1256;96830;-81
2023/04/23 01:15:04;;;;;;;34.00;21.40;;;;;;;9.41;65.30;100362.30;106777;1262;101292;-80
2023/04/23 01:17:50;;;;;;;32.70;20.80;;;;;;;9.36;65.36;100365.15;107005;1256;99078;-82
2023/04/23 01:20:36;;;;;;;33.10;20.20;;;;;;;9.32;65.53;100361.85;106686;1257;98993;-81
2023/04/23 01:23:22;;;;;;;34.50;21.60;;;;;;;9.31;65.83;100363.61;106763;1257;96622;-79
2023/04/23 01:26:09;;;;;;;38.30;22.40;;;;;;;9.31;65.64;100364.34;106798;1257;96551;-81
2023/04/23 01:28:55;;;;;;;35.50;21.00;;;;;;;9.30;65.57;100359.86;106725;1260;99964;-81
2023/04/23 01:31:41;;;;;;;33.50;20.20;;;;;;;9.28;65.83;100360.38;106842;1257;99661;-81
2023/04/23 01:34:32;;;;;;;35.50;22.30;;;;;;;9.25;65.79;100359.20;106681;1260;98997;-81
2023/04/23 01:37:18;;;;;;;37.20;21.70;;;;;;;9.22;66.07;100360.23;106689;1262;96520;-81
2023/04/23 01:40:05;;;;;;;36.70;22.00;;;;;;;9.20;66.21;100360.31;106837;1261;97226;-79
2023/04/23 01:42:51;;;;;;;31.30;21.00;;;;;;;9.15;66.15;100360.91;106740;1258;101354;-81
2023/04/23 01:45:37;;;;;;;33.40;22.40;;;;;;;9.11;66.38;100362.26;106697;1256;99087;-81
2023/04/23 01:48:23;;;;;;;34.20;21.40;;;;;;;9.08;66.24;100361.66;106914;1257;98943;-81
2023/04/23 01:51:08;;;;;;;32.60;21.30;;;;;;;9.03;66.47;100361.88;106514;1257;97077;-80
2023/04/23 01:53:55;;;;;;;36.30;21.60;;;;;;;9.00;66.44;100362.98;106820;1257;97119;-80
2023/04/23 01:56:40;;;;;;;30.90;21.30;;;;;;;8.97;66.61;100362.06;106566;1261;100761;-81
2023/04/23 01:59:26;;;;;;;32.90;21.40;;;;;;;8.93;66.71;100361.08;106637;1257;100692;-81
2023/04/23 02:02:12;;;;;;;31.60;21.00;;;;;;;8.89;66.67;100360.71;106759;1258;99028;-81
2023/04/23 02:05:03;;;;;;;30.20;20.90;;;;;;;8.84;66.78;100360.95;106712;1257;96654;-80
2023/04/23 02:07:51;;;;;;;32.90;22.00;;;;;;;8.80;66.75;100360.65;106761;1257;96723;-81
2023/04/23 02:10:36;;;;;;;37.70;21.80;;;;;;;8.79;67.02;100362.04;106582;1257;99997;-80
2023/04/23 02:13:21;;;;;;;35.60;23.00;;;;;;;8.77;67.04;100360.32;106801;1256;99098;-81
2023/04/23 02:16:07;;;;;;;34.70;21.40;;;;;;;8.75;67.08;100360.77;106714;1257;97715;-81
2023/04/23 02:18:54;;;;;;;34.30;21.60;;;;;;;8.73;67.30;100359.45;106745;1260;96526;-81
2023/04/23 02:21:39;;;;;;;31.50;20.00;;;;;;;8.69;67.22;100358.52;106628;1257;96533;-81
2023/04/23 02:24:25;;;;;;;29.90;20.30;;;;;;;8.66;67.47;100361.88;106772;1260;100664;-82
2023/04/23 02:27:10;;;;;;;29.00;20.20;;;;;;;8.63;67.52;100361.52;106807;1258;99904;-81
2023/04/23 02:29:56;;;;;;;34.40;22.10;;;;;;;8.59;67.58;100361.04;106728;1257;99507;-80
2023/04/23 02:32:42;;;;;;;33.80;21.20;;;;;;;8.55;67.66;100359.98;106790;1257;96825;-81
2023/04/23 02:35:29;;;;;;;34.70;20.20;;;;;;;8.52;67.49;100359.57;106596;1256;95888;-80
2023/04/23 02:38:15;;;;;;;35.70;22.10;;;;;;;8.49;67.67;100357.42;106648;1263;100079;-81
2023/04/23 02:41:00;;;;;;;31.40;21.30;;;;;;;8.46;67.90;100356.25;106606;1262;100320;-79
2023/04/23 02:43:47;;;;;;;34.90;21.00;;;;;;;8.42;67.95;100352.81;106077;1260;97725;-79
2023/04/23 02:46:35;;;;;;;34.30;21.50;;;;;;;8.40;67.86;100353.71;105894;1260;95937;-81
2023/04/23 02:49:20;;;;;;;34.30;22.00;;;;;;;8.38;67.94;100350.94;106776;1257;97061;-82
2023/04/23 02:52:06;;;;;;;32.10;20.60;;;;;;;8.36;68.11;100349.42;106650;1257;99996;-79
2023/04/23 02:54:51;;;;;;;33.80;22.70;;;;;;;8.34;68.14;100348.94;105930;1257;99103;-78
2023/04/23 02:57:36;;;;;;;35.40;19.90;;;;;;;8.30;68.54;100351.00;106057;1264;97717;-79
2023/04/23 03:00:23;;;;;;;31.50;19.90;;;;;;;8.23;68.68;100352.69;106731;1258;97379;-81
2023/04/23 03:03:08;;;;;;;31.80;20.60;;;;;;;8.21;68.78;100351.91;106119;1258;96801;-79
2023/04/23 03:05:54;;;;;;;34.40;21.80;;;;;;;8.18;68.83;100349.52;106164;1256;99993;-79
2023/04/23 03:08:40;;;;;;;30.40;20.10;;;;;;;8.16;69.22;100348.58;106661;1256;99257;-80
2023/04/23 03:11:26;;;;;;;38.30;21.60;;;;;;;8.12;69.04;100353.55;106526;1257;97733;-79
2023/04/23 03:14:13;;;;;;;35.20;21.50;;;;;;;8.08;68.92;100354.09;106545;1257;97260;-82
2023/04/23 03:16:59;;;;;;;33.20;21.80;;;;;;;8.06;69.03;100351.61;106569;1258;98216;-80
2023/04/23 03:19:45;;;;;;;31.30;21.40;;;;;;;8.06;69.11;100348.83;106607;1256;101701;-80
2023/04/23 03:22:31;;;;;;;37.70;21.60;;;;;;;8.05;69.35;100345.86;106632;1256;100388;-80
2023/04/23 03:25:16;;;;;;;30.70;21.30;;;;;;;8.06;69.41;100340.59;106457;1256;98172;-80
2023/04/23 03:28:04;;;;;;;33.50;21.90;;;;;;;8.07;69.57;100340.09;106728;1261;96620;-80
2023/04/23 03:30:49;;;;;;;34.40;21.40;;;;;;;8.08;69.56;100342.32;106480;1256;96554;-82
2023/04/23 03:33:35;;;;;;;38.60;21.80;;;;;;;8.09;69.76;100333.52;106519;1257;101259;-80
2023/04/23 03:36:21;;;;;;;31.80;21.70;;;;;;;8.11;69.76;100332.16;106576;1256;99097;-81
2023/04/23 03:39:08;;;;;;;31.30;21.90;;;;;;;8.14;69.82;100330.23;106497;1256;97708;-82
2023/04/23 03:42:08;;;;;;;35.90;22.80;;;;;;;8.17;69.71;100329.38;106489;1256;96603;-81
2023/04/23 03:44:55;;;;;;;35.60;22.40;;;;;;;8.19;69.71;100331.40;106829;1257;98186;-80
2023/04/23 03:47:40;;;;;;;34.90;21.70;;;;;;;8.23;69.64;100331.00;106688;1261;100035;-80
2023/04/23 03:50:26;;;;;;;34.30;22.20;;;;;;;8.25;69.77;100332.88;106711;1259;99674;-80
2023/04/23 03:53:24;;;;;;;34.10;21.30;;;;;;;8.27;69.73;100333.91;106825;1262;98956;-80
2023/04/23 03:56:34;;;;;;;37.40;21.40;;;;;;;8.29;69.98;100332.58;106540;1257;96583;-80
2023/04/23 03:59:28;;;;;;;37.40;21.80;;;;;;;8.32;69.99;100331.70;106720;1257;96443;-80
2023/04/23 04:02:16;;;;;;;35.60;20.90;;;;;;;8.35;70.15;100332.00;106557;1260;99997;-80
2023/04/23 04:05:02;;;;;;;34.50;22.20;;;;;;;8.38;70.22;100333.86;106583;1258;100033;-80
2023/04/23 04:07:47;;;;;;;40.20;23.20;;;;;;;8.41;70.20;100336.71;106703;1260;98919;-81
2023/04/23 04:10:33;;;;;;;34.30;22.10;;;;;;;8.44;70.44;100338.12;106568;1264;95817;-81
2023/04/23 04:13:18;;;;;;;39.50;24.00;;;;;;;8.47;70.44;100338.25;106780;1260;96524;-80
2023/04/23 04:16:04;;;;;;;35.80;22.80;;;;;;;8.52;70.56;100337.34;106548;1257;101386;-80
2023/04/23 04:18:50;;;;;;;40.50;22.90;;;;;;;8.57;70.59;100335.02;106510;1256;100455;-80
2023/04/23 04:21:36;;;;;;;31.60;20.80;;;;;;;8.62;70.54;100334.09;106662;1256;98602;-80
2023/04/23 04:24:24;;;;;;;34.50;21.20;;;;;;;8.65;70.80;100334.10;106690;1256;96416;-81
2023/04/23 04:27:10;;;;;;;36.40;22.20;;;;;;;8.68;70.83;100333.66;106808;1258;97151;-81
2023/04/23 04:29:56;;;;;;;35.30;21.60;;;;;;;8.72;70.82;100332.80;106583;1256;100125;-80
2023/04/23 04:32:44;;;;;;;38.40;21.90;;;;;;;8.77;70.89;100330.45;106561;1256;100150;-80
2023/04/23 04:35:29;;;;;;;34.10;19.80;;;;;;;8.82;71.06;100329.70;106584;1261;97738;-80
2023/04/23 04:38:15;;;;;;;28.00;19.50;;;;;;;8.86;71.09;100331.19;106460;1257;96543;-81
2023/04/23 04:41:01;;;;;;;29.10;18.80;;;;;;;8.90;71.30;100330.45;106632;1256;97132;-79
2023/04/23 04:43:47;;;;;;;35.70;19.50;;;;;;;8.97;71.26;100332.89;106168;1261;100023;-79
2023/04/23 04:46:39;;;;;;;32.20;20.30;;;;;;;9.02;71.40;100333.86;106054;1256;99239;-79
2023/04/23 04:49:24;;;;;;;31.70;19.20;;;;;;;9.07;71.53;100335.17;106791;1256;97687;-80
2023/04/23 04:52:10;;;;;;;28.90;19.40;;;;;;;9.12;71.44;100335.45;106668;1261;97694;-80
2023/04/23 04:54:55;;;;;;;31.30;19.10;;;;;;;9.17;71.61;100334.17;106819;1260;97080;-80
2023/04/23 04:57:41;;;;;;;33.00;18.80;;;;;;;9.22;71.71;100330.83;106825;1259;100609;-81
2023/04/23 05:00:28;;;;;;;26.40;18.90;;;;;;;9.28;71.85;100331.17;106467;1256;99750;-80
2023/04/23 05:03:14;;;;;;;26.50;18.10;;;;;;;9.35;71.96;100327.71;106577;1262;97710;-81
2023/04/23 05:05:59;;;;;;;25.90;18.40;;;;;;;9.42;72.19;100327.57;106428;1256;96695;-80
2023/04/23 05:08:47;;;;;;;30.90;18.50;;;;;;;9.49;72.03;100328.17;106706;1260;95949;-80
2023/04/23 05:11:32;;;;;;;28.10;18.50;;;;;;;9.54;72.20;100325.87;106717;1256;99992;-80
2023/04/23 05:14:18;;;;;;;27.60;17.80;;;;;;;9.61;72.19;100327.86;106725;1257;99186;-80
2023/04/23 05:17:03;;;;;;;26.30;17.70;;;;;;;9.69;72.34;100327.98;106532;1261;97698;-80
2023/04/23 05:19:49;;;;;;;27.60;17.40;;;;;;;9.76;72.34;100326.92;106695;1260;95861;-81
2023/04/23 05:22:37;;;;;;;26.10;17.80;;;;;;;9.83;72.41;100326.88;106439;1257;96726;-80
2023/04/23 05:25:22;;;;;;;29.90;18.00;;;;;;;9.92;72.30;100333.11;106665;1256;99986;-81
2023/04/23 05:28:07;;;;;;;28.90;16.80;;;;;;;10.00;72.92;100332.39;106460;1260;99161;-80
2023/04/23 05:30:53;;;;;;;25.80;17.30;;;;;;;10.08;72.65;100330.14;106627;1257;97738;-81
2023/04/23 05:33:39;;;;;;;30.50;18.10;;;;;;;10.19;72.89;100328.04;106476;1257;97504;-81
2023/04/23 05:36:24;;;;;;;28.50;18.00;;;;;;;10.29;73.12;100330.24;106509;1258;97075;-80
2023/04/23 05:39:11;;;;;;;27.90;18.30;;;;;;;10.39;73.03;100332.23;106500;1256;99996;-80
2023/04/23 05:41:56;;;;;;;25.10;16.80;;;;;;;10.48;72.55;100329.30;106599;1259;99053;-80
2023/04/23 05:44:42;;;;;;;26.90;16.90;;;;;;;10.59;72.85;100330.52;106424;1257;98985;-82
2023/04/23 05:47:28;;;;;;;23.70;16.50;;;;;;;10.71;72.78;100332.39;106583;1256;96620;-81
2023/04/23 05:50:14;;;;;;;27.10;17.10;;;;;;;10.82;72.83;100327.53;106378;1256;96557;-86
2023/04/23 05:52:59;;;;;;;22.10;15.70;;;;;;;10.95;72.85;100327.70;106293;1256;101270;-82
2023/04/23 05:55:45;;;;;;;25.90;17.30;;;;;;;11.08;72.55;100328.57;106537;1256;100463;-80
2023/04/23 05:58:30;;;;;;;23.90;16.90;;;;;;;11.19;72.03;100329.59;106538;1260;98182;-81
2023/04/23 06:01:16;;;;;;;24.40;15.70;;;;;;;11.31;72.29;100330.90;106551;1262;96525;-81
2023/04/23 06:04:02;;;;;;;23.00;16.20;;;;;;;11.44;72.34;100329.69;106542;1256;95942;-80
2023/04/23 06:06:47;;;;;;;27.60;17.40;;;;;;;11.54;71.75;100329.74;106615;1256;101269;-81
2023/04/23 06:09:33;;;;;;;24.10;15.40;;;;;;;11.65;72.07;100328.16;106527;1262;99786;-81
2023/04/23 06:12:19;;;;;;;26.30;14.80;;;;;;;11.78;71.89;100327.98;106687;1257;97688;-81
2023/04/23 06:15:08;;;;;;;21.80;15.00;;;;;;;11.92;71.35;100331.12;106654;1261;96769;-81
2023/04/23 06:17:54;;;;;;;23.60;15.40;;;;;;;12.03;71.56;100327.93;106646;1256;96647;-80
2023/04/23 06:20:39;;;;;;;22.90;14.30;;;;;;;12.17;71.31;100328.66;106209;1256;100040;-81
2023/04/23 06:23:25;;;;;;;22.70;13.10;;;;;;;12.30;70.85;100327.98;106701;1262;100396;-82
2023/04/23 06:26:11;;;;;;;18.90;12.70;;;;;;;12.43;69.85;100327.06;106626;1256;98974;-81
2023/04/23 06:28:56;;;;;;;18.80;11.60;;;;;;;12.57;69.13;100328.42;106582;1256;96551;-81
2023/04/23 06:31:47;;;;;;;16.70;11.20;;;;;;;12.68;68.61;100330.04;106445;1256;96593;-80
2023/04/23 06:34:33;;;;;;;18.80;11.30;;;;;;;12.80;68.41;100326.61;106865;1260;100044;-81
2023/04/23 06:37:18;;;;;;;17.10;11.30;;;;;;;12.95;69.20;100320.52;106719;1256;99123;-82
2023/04/23 06:40:04;;;;;;;18.20;12.60;;;;;;;13.08;68.69;100321.67;106621;1257;98979;-80
2023/04/23 06:42:54;;;;;;;18.30;11.30;;;;;;;13.22;68.14;100322.82;106182;1256;96811;-92
2023/04/23 06:46:03;;;;;;;20.60;12.90;;;;;;;13.35;67.44;100320.26;106269;1256;97007;-86
2023/04/23 06:49:04;;;;;;;;;;;;;;;;;;;;;
2023/04/23 06:51:53;;;;;;;17.90;12.00;;;;;;;13.61;66.65;100315.58;106606;1256;100843;-88
2023/04/23 06:54:39;;;;;;;18.20;11.70;;;;;;;13.72;65.93;100317.02;106136;1256;97604;-86
2023/04/23 06:57:24;;;;;;;18.00;12.30;;;;;;;13.83;66.14;100315.31;106100;1260;96694;-86
2023/04/23 07:00:11;;;;;;;17.20;10.60;;;;;;;13.97;66.38;100313.67;106320;1257;96585;-87
2023/04/23 07:02:58;;;;;;;16.00;10.40;;;;;;;14.10;65.86;100308.67;106233;1257;101795;-86
2023/04/23 07:05:44;;;;;;;15.40;11.00;;;;;;;14.22;65.81;100307.42;106520;1257;99103;-87
2023/04/23 07:08:30;;;;;;;13.80;9.00;;;;;;;14.35;66.20;100304.83;106251;1264;97743;-84
2023/04/23 07:11:16;;;;;;;16.30;10.80;;;;;;;14.49;65.86;100301.42;106442;1256;96478;-89
2023/04/23 07:14:03;;;;;;;14.50;9.40;;;;;;;14.62;65.18;100301.22;106574;1259;96641;-90
2023/04/23 07:16:48;;;;;;;15.10;9.60;;;;;;;14.77;64.59;100298.61;106407;1266;102157;-87
2023/04/23 07:19:34;;;;;;;14.50;9.30;;;;;;;14.91;64.51;100294.91;106446;1256;101077;-90
2023/04/23 07:22:20;;;;;;;13.20;8.30;;;;;;;15.05;64.01;100297.10;106386;1258;100456;-89
2023/04/23 07:25:07;;;;;;;13.90;7.30;;;;;;;15.19;63.35;100298.98;106231;1263;96515;-89
2023/04/23 07:27:54;;;;;;;17.00;7.20;;;;;;;15.32;62.25;100298.67;106100;1256;96555;-83
2023/04/23 07:30:39;;;;;;;10.30;6.20;;;;;;;15.48;61.62;100297.85;105836;1257;99994;-84
2023/04/23 07:33:25;;;;;;;10.10;6.50;;;;;;;15.61;61.34;100294.79;105906;1259;99119;-82
2023/04/23 07:36:11;;;;;;;8.30;5.80;;;;;;;15.74;61.40;100290.10;105948;1256;99904;-83
2023/04/23 07:38:57;;;;;;;8.50;5.60;;;;;;;15.86;60.84;100286.27;105797;1260;96709;-82
2023/04/23 07:41:42;;;;;;;12.10;6.00;;;;;;;16.00;60.51;100286.38;105897;1257;97031;-77
2023/04/23 07:44:27;;;;;;;8.40;5.90;;;;;;;16.14;60.10;100282.92;106087;1257;100583;-81
2023/04/23 07:47:15;;;;;;;9.20;5.50;;;;;;;16.28;59.15;100277.12;106180;1260;100353;-91
2023/04/23 07:50:01;;;;;;;7.60;6.10;;;;;;;16.40;58.58;100277.26;106669;1266;98819;-86
2023/04/23 07:52:47;;;;;;;11.00;5.90;;;;;;;16.50;58.14;100271.41;105985;1256;96719;-85
2023/04/23 07:55:33;;;;;;;7.90;6.00;;;;;;;16.63;58.15;100270.95;105725;1265;96538;-86
2023/04/23 07:58:19;;;;;;;7.30;5.20;;;;;;;16.80;57.82;100266.54;105936;1264;101312;-85
2023/04/23 08:01:05;;;;;;;7.30;5.00;;;;;;;16.95;56.65;100266.77;105871;1257;100418;-85
2023/04/23 08:03:51;;;;;;;6.00;4.80;;;;;;;17.08;55.24;100263.65;106142;1260;97816;-89
2023/04/23 08:06:36;;;;;;;8.60;4.50;;;;;;;17.18;54.28;100264.46;106389;1257;96536;-88
2023/04/23 08:09:22;;;;;;;8.60;5.00;;;;;;;17.28;53.94;100263.02;106362;1264;97155;-87
2023/04/23 08:12:08;;;;;;;8.60;4.60;;;;;;;17.39;53.65;100260.66;106341;1256;100318;-86
2023/04/23 08:14:54;;;;;;;7.10;4.30;;;;;;;17.54;52.72;100259.42;105980;1256;99194;-86
2023/04/23 08:17:41;;;;;;;7.30;4.60;;;;;;;17.67;52.30;100262.11;106617;1256;97697;-88
2023/04/23 08:20:27;;;;;;;6.90;4.70;;;;;;;17.76;51.68;100259.86;106450;1265;96521;-88
2023/04/23 08:23:13;;;;;;;4.70;3.80;;;;;;;17.87;52.09;100258.39;106169;1257;96663;-85
2023/04/23 08:25:59;;;;;;;6.30;3.80;;;;;;;17.97;51.11;100258.41;106123;1264;101808;-87
2023/04/23 08:28:45;;;;;;;8.30;4.20;;;;;;;18.07;51.43;100256.00;106173;1266;100585;-88
2023/04/23 08:31:31;;;;;;;5.20;3.70;;;;;;;18.20;50.17;100249.28;106421;1257;97737;-86
2023/04/23 08:34:17;;;;;;;6.50;3.60;;;;;;;18.29;48.87;100245.38;106257;1256;96540;-89
2023/04/23 08:37:03;;;;;;;5.10;3.50;;;;;;;18.39;48.36;100247.07;106584;1265;96923;-86
2023/04/23 08:39:50;;;;;;;6.90;3.70;;;;;;;18.47;47.79;100243.05;106526;1265;99993;-93
2023/04/23 08:42:51;;;;;;;7.20;3.70;;;;;;;18.56;47.52;100242.29;106542;1262;100517;-90
2023/04/23 08:45:40;;;;;;;4.40;3.30;;;;;;;18.66;46.81;100237.56;106391;1257;97751;-89
2023/04/23 08:48:28;;;;;;;6.50;3.30;;;;;;;18.75;46.86;100235.90;106545;1256;96528;-87
2023/04/23 08:51:17;;;;;;;5.60;3.40;;;;;;;18.84;45.92;100234.13;106540;1256;97043;-91
2023/04/23 08:54:04;;;;;;;5.30;3.30;;;;;;;18.93;45.47;100237.52;106790;1262;101710;-89
2023/04/23 08:56:50;;;;;;;4.00;3.20;;;;;;;19.02;45.61;100235.41;106310;1263;100288;-89
2023/04/23 08:59:37;;;;;;;4.20;3.30;;;;;;;19.09;45.33;100231.89;105984;1263;98485;-80
2023/04/23 09:02:26;;;;;;;5.40;3.60;;;;;;;19.17;45.14;100231.83;105926;1263;97476;-84
2023/04/23 09:05:13;;;;;;;5.60;3.30;;;;;;;19.27;44.65;100229.52;106056;1262;96614;-84
2023/04/23 09:08:03;;;;;;;6.20;3.70;;;;;;;19.35;44.42;100230.95;106182;1264;100011;-85
2023/04/23 09:10:50;;;;;;;5.60;3.50;;;;;;;19.41;44.28;100227.77;105903;1264;99288;-84
2023/04/23 09:13:36;;;;;;;8.40;4.00;;;;;;;19.48;44.07;100227.09;105843;1258;97738;-85
2023/04/23 09:16:22;;;;;;;8.20;4.00;;;;;;;19.53;43.63;100222.15;106089;1259;96701;-85
2023/04/23 09:19:09;;;;;;;3.60;2.90;;;;;;;19.57;43.21;100222.27;105927;1262;96877;-84
2023/04/23 09:21:57;;;;;;;5.70;3.50;;;;;;;19.61;43.26;100220.51;105709;1258;101310;-86
2023/04/23 09:24:43;;;;;;;9.40;3.50;;;;;;;19.66;42.97;100218.23;105670;1262;100145;-83
2023/04/23 09:27:28;;;;;;;5.60;3.70;;;;;;;19.69;42.53;100214.45;106060;1259;97730;-84
2023/04/23 09:30:15;;;;;;;4.00;2.80;;;;;;;19.74;42.64;100212.81;105775;1257;96634;-84
2023/04/23 09:33:04;;;;;;;5.10;3.50;;;;;;;19.79;42.59;100214.17;105806;1263;96653;-84
2023/04/23 09:35:51;;;;;;;5.20;3.30;;;;;;;19.86;42.87;100212.08;105823;1264;101785;-84
2023/04/23 09:38:39;;;;;;;6.70;3.70;;;;;;;19.94;42.18;100210.91;105851;1258;99174;-85
2023/04/23 09:41:26;;;;;;;6.40;3.30;;;;;;;20.01;41.75;100208.26;105873;1257;97821;-84
2023/04/23 09:44:21;;;;;;;4.20;3.10;;;;;;;20.06;41.84;100206.18;106044;1257;96544;-83
2023/04/23 09:47:13;;;;;;;6.30;3.60;;;;;;;20.11;41.89;100204.44;106425;1262;96511;-88
2023/04/23 09:49:59;;;;;;;6.80;3.50;;;;;;;20.18;41.85;100201.66;106377;1257;101223;-82
2023/04/23 09:52:54;;;;;;;4.80;3.70;;;;;;;20.24;41.46;100197.77;106379;1259;100839;-82
2023/04/23 09:55:41;;;;;;;5.40;3.40;;;;;;;20.32;41.27;100191.15;106484;1259;106721;-82
2023/04/23 09:58:27;;;;;;;6.60;3.10;;;;;;;20.36;40.87;100186.50;106402;1260;96574;-82
2023/04/23 10:01:14;;;;;;;7.30;3.40;;;;;;;20.39;40.96;100187.45;106219;1260;96855;-85
2023/04/23 10:04:00;;;;;;;5.50;3.30;;;;;;;20.45;41.34;100181.45;106396;1261;101815;-83
2023/04/23 10:06:47;;;;;;;4.80;3.30;;;;;;;20.52;40.98;100182.53;105819;1260;99097;-82
2023/04/23 10:09:33;;;;;;;5.40;3.80;;;;;;;20.56;40.73;100174.45;106232;1265;98461;-84
2023/04/23 10:12:20;;;;;;;6.40;3.10;;;;;;;20.61;40.63;100172.10;106463;1264;96762;-82
2023/04/23 10:15:09;;;;;;;7.60;3.70;;;;;;;20.65;40.33;100167.81;106252;1257;97021;-85
2023/04/23 10:17:55;;;;;;;6.30;3.40;;;;;;;20.70;40.05;100167.96;106345;1262;99977;-84
2023/04/23 10:20:41;;;;;;;5.30;3.80;;;;;;;20.75;40.25;100166.67;106423;1263;100878;-81
2023/04/23 10:23:26;;;;;;;4.90;3.00;;;;;;;20.79;40.34;100158.81;106203;1257;106548;-90
2023/04/23 10:26:14;;;;;;;9.00;3.70;;;;;;;20.84;40.35;100154.81;106263;1265;96593;-81
2023/04/23 10:29:03;;;;;;;6.80;3.80;;;;;;;20.91;40.22;100151.69;106125;1262;97059;-81
2023/04/23 10:31:51;;;;;;;5.00;3.70;;;;;;;20.97;39.46;100152.48;106181;1259;101257;-84
2023/04/23 10:34:39;;;;;;;7.20;3.60;;;;;;;21.01;39.75;100149.84;105938;1258;99183;-85
2023/04/23 10:37:26;;;;;;;7.80;4.00;;;;;;;21.06;39.43;100147.55;105713;1263;98325;-85
2023/04/23 10:40:13;;;;;;;5.30;3.30;;;;;;;21.10;39.18;100143.86;106214;1265;96661;-82
2023/04/23 10:43:00;;;;;;;6.20;3.70;;;;;;;21.12;38.98;100141.73;106274;1258;97041;-84
2023/04/23 10:45:45;;;;;;;6.20;3.50;;;;;;;21.16;39.77;100136.52;106108;1262;101200;-82
2023/04/23 10:48:50;;;;;;;5.20;3.70;;;;;;;21.21;39.45;100130.88;106178;1258;99965;-82
2023/04/23 10:51:36;;;;;;;5.50;3.40;;;;;;;21.25;39.36;100134.42;106050;1262;99062;-82
2023/04/23 10:54:28;;;;;;;4.70;3.70;;;;;;;21.31;39.96;100130.36;105758;1263;96508;-83
2023/04/23 10:57:14;;;;;;;5.90;3.60;;;;;;;21.37;38.89;100129.94;106021;1259;97173;-82
2023/04/23 11:00:01;;;;;;;4.60;3.70;;;;;;;21.42;38.61;100131.86;106031;1261;101263;-82
2023/04/23 11:02:46;;;;;;;7.00;3.90;;;;;;;21.51;38.63;100129.47;106046;1258;100477;-82
2023/04/23 11:05:34;;;;;;;8.20;4.10;;;;;;;21.57;38.49;100124.86;106082;1263;99057;-82
2023/04/23 11:08:19;;;;;;;5.80;4.00;;;;;;;21.61;38.78;100121.44;106355;1262;96589;-83
2023/04/23 11:11:41;;;;;;;5.40;3.90;;;;;;;21.66;38.92;100119.77;106828;1250;96561;31
2023/04/23 11:17:29;;;;;;;4.70;3.70;;;;;;;21.75;38.44;100116.27;106764;1261;106888;-83
2023/04/23 11:20:19;;;;;;;8.30;3.70;;;;;;;21.80;38.58;100112.20;105675;1262;97782;-84
2023/04/23 11:23:06;;;;;;;5.50;3.70;;;;;;;21.86;37.88;100109.50;105582;1268;96775;-82
2023/04/23 11:25:52;;;;;;;7.30;3.90;;;;;;;21.90;38.26;100104.80;105576;1269;97018;-83
2023/04/23 11:28:41;;;;;;;6.80;3.50;;;;;;;21.93;37.91;100101.26;105643;1265;100009;-83
2023/04/23 11:31:26;;;;;;;6.70;4.00;;;;;;;21.96;37.55;100098.20;105571;1265;99094;-82
2023/04/23 11:34:11;;;;;;;4.50;3.50;;;;;;;22.03;37.57;100099.34;106109;1265;98606;-82
2023/04/23 11:36:59;;;;;;;5.20;3.50;;;;;;;22.08;37.71;100093.11;106049;1265;96693;-80
2023/04/23 11:39:46;;;;;;;4.90;3.70;;;;;;;22.15;37.31;100094.64;106074;1265;96533;-80
2023/04/23 11:42:31;;;;;;;4.50;3.90;;;;;;;22.18;36.95;100092.58;106240;1262;101034;-81
2023/04/23 11:45:21;;;;;;;4.80;3.60;;;;;;;22.22;37.05;100089.67;106083;1263;99110;-79
2023/04/23 11:48:07;;;;;;;4.50;4.00;;;;;;;22.27;36.87;100090.86;106015;1268;97737;-81
2023/04/23 11:50:52;;;;;;;6.50;3.80;;;;;;;22.31;36.71;100090.36;105988;1265;96523;-81
2023/04/23 11:53:46;;;;;;;9.80;4.10;;;;;;;22.33;36.94;100089.92;106034;1263;97077;-84
2023/04/23 11:56:34;;;;;;;4.90;3.20;;;;;;;22.36;36.90;100086.81;105691;1263;100058;-84
2023/04/23 11:59:19;;;;;;;5.00;3.70;;;;;;;22.39;36.65;100086.63;105767;1263;99604;-84
2023/04/23 12:02:04;;;;;;;8.70;3.30;;;;;;;22.43;36.70;100081.61;105965;1265;98746;-81
2023/04/23 12:04:50;;;;;;;5.50;3.40;;;;;;;22.48;36.43;100078.10;106016;1265;96612;-87
2023/04/23 12:07:36;;;;;;;3.30;3.00;;;;;;;22.55;36.57;100078.67;105597;1263;97119;-84
2023/04/23 12:10:21;;;;;;;6.40;3.90;;;;;;;22.63;36.82;100077.60;105650;1263;110395;-84
2023/04/23 12:13:17;;;;;;;4.90;3.90;;;;;;;22.67;36.50;100077.96;105824;1268;99087;-82
2023/04/23 12:16:04;;;;;;;5.00;3.70;;;;;;;22.69;35.85;100077.45;105931;1262;98537;-81
2023/04/23 12:18:52;;;;;;;5.10;3.50;;;;;;;22.71;36.14;100076.25;105831;1266;96605;-81
2023/04/23 12:21:47;;;;;;;4.60;3.10;;;;;;;22.77;36.88;100076.01;105885;1262;96714;-81
2023/04/23 12:24:50;;;;;;;5.90;3.50;;;;;;;22.84;36.64;100069.38;105967;1262;100010;-81
2023/04/23 12:27:41;;;;;;;6.50;3.00;;;;;;;22.86;36.43;100064.50;105782;1262;100152;-83
2023/04/23 12:30:31;;;;;;;4.40;3.30;;;;;;;22.91;36.37;100059.23;105753;1262;97731;-81
2023/04/23 12:33:17;;;;;;;5.50;3.10;;;;;;;22.97;36.14;100056.91;105996;1263;96634;-83
2023/04/23 12:36:10;;;;;;;4.70;3.20;;;;;;;23.02;35.94;100053.39;105885;1262;97956;-82
2023/04/23 12:39:21;;;;;;;4.60;3.20;;;;;;;23.07;36.13;100052.81;105790;1267;100706;-82
2023/04/23 12:42:09;;;;;;;6.50;3.70;;;;;;;23.09;35.56;100051.39;105825;1262;99119;-83
2023/04/23 12:45:04;;;;;;;7.00;3.60;;;;;;;23.13;35.91;100050.73;105664;1263;98547;-83
2023/04/23 12:47:49;;;;;;;6.60;3.40;;;;;;;23.15;35.59;100049.07;105734;1267;96721;-84